^^
Saratoga-Weather Station Historical Data
Daily Summary for May 21, 2021 Units:  Metric    English   Both
Daily Weekly Monthly Yearly Custom
  High: Low: Average:
Temperature: 22.9 °C 17.4 °C 18.8 °C
Dew Point: 17.9 °C 15.6 °C 16.4 °C
Humidity: 93% 67% 87%
Wind Speed: 20.9km/h 0km/h 4km/h
Wind Gust: 29km/h - -
Wind- - SW
Pressure: 1007.1 hPa 1003.7 hPa -
Precipitation: 0.0 mm    
Historical Graphs
 
 
Tabular Data for May 21, 2021
Time Temperature Dew Point Pressure Wind Wind Speed Wind Gust Humidity Rainfall Rate (Hourly) solar
00:03 19.3 °C 17.8 °C 1004.1 hPa NE 3.2 km/h 3.2 km/h 91% 0.0 mm 0 W/m2
00:08 19.3 °C 17.8 °C 1004.1 hPa East 4.7 km/h 4.8 km/h 91% 0.0 mm 0 W/m2
00:13 19.3 °C 17.8 °C 1004.1 hPa WNW 3.2 km/h 4.8 km/h 91% 0.0 mm 0 W/m2
00:18 19.3 °C 17.8 °C 1004.1 hPa NNE 1.4 km/h 3.2 km/h 91% 0.0 mm 0 W/m2
00:23 19.2 °C 17.7 °C 1003.7 hPa Calm   1.6 km/h 91% 0.0 mm 0 W/m2
00:28 19.2 °C 17.9 °C 1004.1 hPa Calm     92% 0.0 mm 0 W/m2
00:33 19.1 °C 17.8 °C 1004.1 hPa Calm     92% 0.0 mm 0 W/m2
00:38 18.9 °C 17.6 °C 1004.1 hPa NNW 1.4 km/h 3.2 km/h 92% 0.0 mm 0 W/m2
00:43 18.8 °C 17.5 °C 1004.1 hPa Calm     92% 0.0 mm 0 W/m2
00:48 18.8 °C 17.5 °C 1004.1 hPa Calm   1.6 km/h 92% 0.0 mm 0 W/m2
00:53 18.7 °C 17.4 °C 1004.1 hPa Calm   1.6 km/h 92% 0.0 mm 0 W/m2
00:58 18.6 °C 17.3 °C 1004.1 hPa Calm   3.2 km/h 92% 0.0 mm 0 W/m2
01:03 18.5 °C 17.3 °C 1004.1 hPa ENE 3.2 km/h 4.8 km/h 93% 0.0 mm 0 W/m2
01:08 18.4 °C 17.2 °C 1004.1 hPa East 3.2 km/h 6.4 km/h 93% 0.0 mm 0 W/m2
01:13 18.4 °C 17.2 °C 1004.1 hPa ENE 1.4 km/h 3.2 km/h 93% 0.0 mm 0 W/m2
01:18 18.3 °C 17.1 °C 1003.7 hPa East 3.2 km/h 3.2 km/h 93% 0.0 mm 0 W/m2
01:23 18.3 °C 17.1 °C 1003.7 hPa East 1.4 km/h 1.6 km/h 93% 0.0 mm 0 W/m2
01:28 18.2 °C 17 °C 1003.7 hPa East 1.4 km/h 3.2 km/h 93% 0.0 mm 0 W/m2
01:33 18.1 °C 16.9 °C 1003.7 hPa Calm   1.6 km/h 93% 0.0 mm 0 W/m2
01:38 18.1 °C 16.9 °C 1004.1 hPa ENE 1.4 km/h 1.6 km/h 93% 0.0 mm 0 W/m2
01:43 18 °C 16.9 °C 1004.1 hPa NW 1.4 km/h 8 km/h 93% 0.0 mm 0 W/m2
01:48 17.9 °C 16.8 °C 1004.1 hPa Calm   3.2 km/h 93% 0.0 mm 0 W/m2
01:53 18 °C 16.9 °C 1004.1 hPa NE 3.2 km/h 8 km/h 93% 0.0 mm 0 W/m2
01:58 17.9 °C 16.6 °C 1004.1 hPa SE 1.4 km/h 6.4 km/h 92% 0.0 mm 0 W/m2
02:03 17.9 °C 16.6 °C 1004.1 hPa ENE 1.4 km/h 6.4 km/h 92% 0.0 mm 0 W/m2
02:08 17.9 °C 16.6 °C 1004.1 hPa ENE 1.4 km/h 6.4 km/h 92% 0.0 mm 0 W/m2
02:13 17.9 °C 16.6 °C 1004.1 hPa NNE 4.7 km/h 6.4 km/h 92% 0.0 mm 0 W/m2
02:18 18 °C 16.7 °C 1004.1 hPa Calm   1.6 km/h 92% 0.0 mm 0 W/m2
02:23 18 °C 16.7 °C 1004.1 hPa East 1.4 km/h 3.2 km/h 92% 0.0 mm 0 W/m2
02:28 18.1 °C 16.8 °C 1004.1 hPa Calm   3.2 km/h 92% 0.0 mm 0 W/m2
02:33 18 °C 16.7 °C 1004.1 hPa ENE 1.4 km/h 3.2 km/h 92% 0.0 mm 0 W/m2
02:38 18.1 °C 16.8 °C 1004.1 hPa East 3.2 km/h 6.4 km/h 92% 0.0 mm 0 W/m2
02:43 18.1 °C 16.8 °C 1004.1 hPa ENE 3.2 km/h 3.2 km/h 92% 0.0 mm 0 W/m2
02:48 18.1 °C 16.8 °C 1004.1 hPa Calm   6.4 km/h 92% 0.0 mm 0 W/m2
02:53 18.1 °C 16.6 °C 1004.1 hPa Calm   1.6 km/h 91% 0.0 mm 0 W/m2
02:58 18.1 °C 16.6 °C 1004.1 hPa Calm   4.8 km/h 91% 0.0 mm 0 W/m2
03:03 18.1 °C 16.6 °C 1004.1 hPa Calm   1.6 km/h 91% 0.0 mm 0 W/m2
03:08 18.1 °C 16.6 °C 1004.1 hPa North 4.7 km/h 12.9 km/h 91% 0.0 mm 0 W/m2
03:13 18.1 °C 16.6 °C 1004.4 hPa East 1.4 km/h 4.8 km/h 91% 0.0 mm 0 W/m2
03:18 18 °C 16.5 °C 1004.4 hPa Calm   12.9 km/h 91% 0.0 mm 0 W/m2
03:23 18 °C 16.5 °C 1004.4 hPa ENE 1.4 km/h 4.8 km/h 91% 0.0 mm 0 W/m2
03:28 18 °C 16.5 °C 1004.4 hPa Calm   4.8 km/h 91% 0.0 mm 0 W/m2
03:33 18 °C 16.5 °C 1004.4 hPa ENE 1.4 km/h 1.6 km/h 91% 0.0 mm 0 W/m2
03:38 17.9 °C 16.4 °C 1004.4 hPa ESE 3.2 km/h 3.2 km/h 91% 0.0 mm 0 W/m2
03:43 17.9 °C 16.4 °C 1004.4 hPa SE 1.4 km/h 4.8 km/h 91% 0.0 mm 0 W/m2
03:48 17.8 °C 16.3 °C 1004.4 hPa North 1.4 km/h 9.7 km/h 91% 0.0 mm 0 W/m2
03:53 17.8 °C 16.3 °C 1004.7 hPa West 3.2 km/h 9.7 km/h 91% 0.0 mm 0 W/m2
03:58 17.7 °C 16.2 °C 1004.7 hPa North 3.2 km/h 8 km/h 91% 0.0 mm 0 W/m2
04:03 17.7 °C 16.4 °C 1004.7 hPa WNW 11.1 km/h 11.3 km/h 92% 0.0 mm 0 W/m2
04:08 17.7 °C 16.4 °C 1004.7 hPa NNE 3.2 km/h 8 km/h 92% 0.0 mm 0 W/m2
04:13 17.7 °C 16.4 °C 1004.7 hPa North 6.4 km/h 6.4 km/h 92% 0.0 mm 0 W/m2
04:18 17.8 °C 16.3 °C 1004.7 hPa NW 4.7 km/h 8 km/h 91% 0.0 mm 0 W/m2
04:23 17.8 °C 16.3 °C 1004.7 hPa NW 1.4 km/h 4.8 km/h 91% 0.0 mm 0 W/m2
04:28 17.8 °C 16.3 °C 1004.7 hPa NNW 3.2 km/h 8 km/h 91% 0.0 mm 0 W/m2
04:33 17.8 °C 16.3 °C 1004.7 hPa WSW 3.2 km/h 14.5 km/h 91% 0.0 mm 0 W/m2
04:38 17.7 °C 16.2 °C 1004.7 hPa WNW 4.7 km/h 4.8 km/h 91% 0.0 mm 0 W/m2
04:43 17.7 °C 16.2 °C 1004.4 hPa NNW 4.7 km/h 14.5 km/h 91% 0.0 mm 0 W/m2
04:48 17.7 °C 16.2 °C 1004.4 hPa SW 3.2 km/h 4.8 km/h 91% 0.0 mm 0 W/m2
04:53 17.7 °C 16.2 °C 1004.4 hPa WNW 4.7 km/h 9.7 km/h 91% 0.0 mm 0 W/m2
04:58 17.7 °C 16.2 °C 1004.4 hPa WNW 4.7 km/h 6.4 km/h 91% 0.0 mm 0 W/m2
05:04 17.7 °C 16.2 °C 1004.4 hPa NW 1.4 km/h 6.4 km/h 91% 0.0 mm 0 W/m2
05:09 17.7 °C 16.2 °C 1004.4 hPa NNE 3.2 km/h 4.8 km/h 91% 0.0 mm 0 W/m2
05:14 17.7 °C 16.2 °C 1004.4 hPa NNE 3.2 km/h 6.4 km/h 91% 0.0 mm 0 W/m2
05:19 17.7 °C 16.2 °C 1004.4 hPa NW 3.2 km/h 4.8 km/h 91% 0.0 mm 0 W/m2
05:24 17.7 °C 16.2 °C 1004.4 hPa NNW 6.4 km/h 6.4 km/h 91% 0.0 mm 0 W/m2
05:29 17.7 °C 16.2 °C 1004.4 hPa WSW 4.7 km/h 4.8 km/h 91% 0.0 mm 0 W/m2
05:34 17.6 °C 16.1 °C 1004.4 hPa ENE 1.4 km/h 3.2 km/h 91% 0.0 mm 0 W/m2
05:39 17.6 °C 16.1 °C 1004.4 hPa Calm   8 km/h 91% 0.0 mm 0 W/m2
05:44 17.6 °C 15.9 °C 1004.7 hPa North 4.7 km/h 6.4 km/h 90% 0.0 mm 5 W/m2
05:49 17.6 °C 15.9 °C 1004.7 hPa NNW 3.2 km/h 6.4 km/h 90% 0.0 mm 7 W/m2
05:54 17.6 °C 15.9 °C 1004.7 hPa NNW 1.4 km/h 4.8 km/h 90% 0.0 mm 11 W/m2
05:59 17.6 °C 15.9 °C 1004.7 hPa West 4.7 km/h 11.3 km/h 90% 0.0 mm 11 W/m2
06:04 17.5 °C 15.8 °C 1004.7 hPa Calm   3.2 km/h 90% 0.0 mm 14 W/m2
06:09 17.5 °C 15.8 °C 1004.7 hPa West 1.4 km/h 11.3 km/h 90% 0.0 mm 14 W/m2
06:14 17.5 °C 15.8 °C 1004.7 hPa NNW 4.7 km/h 6.4 km/h 90% 0.0 mm 12 W/m2
06:19 17.5 °C 15.8 °C 1004.7 hPa WNW 4.7 km/h 8 km/h 90% 0.0 mm 14 W/m2
06:24 17.5 °C 15.8 °C 1005.1 hPa WNW 1.4 km/h 4.8 km/h 90% 0.0 mm 16 W/m2
06:29 17.4 °C 15.7 °C 1005.1 hPa NNW 3.2 km/h 4.8 km/h 90% 0.0 mm 26 W/m2
06:34 17.5 °C 15.8 °C 1005.1 hPa ESE 3.2 km/h 6.4 km/h 90% 0.0 mm 46 W/m2
06:39 17.4 °C 15.7 °C 1005.1 hPa North 4.7 km/h 4.8 km/h 90% 0.0 mm 39 W/m2
06:44 17.4 °C 15.6 °C 1005.1 hPa WNW 3.2 km/h 11.3 km/h 89% 0.0 mm 37 W/m2
06:49 17.4 °C 15.6 °C 1005.1 hPa ENE 1.4 km/h 12.9 km/h 89% 0.0 mm 33 W/m2
06:54 17.4 °C 15.6 °C 1005.1 hPa Calm   3.2 km/h 89% 0.0 mm 39 W/m2
06:59 17.4 °C 15.6 °C 1005.1 hPa NNE 1.4 km/h 8 km/h 89% 0.0 mm 25 W/m2
07:04 17.4 °C 15.6 °C 1005.4 hPa NNW 1.4 km/h 9.7 km/h 89% 0.0 mm 33 W/m2
07:09 17.4 °C 15.6 °C 1005.4 hPa NW 3.2 km/h 14.5 km/h 89% 0.0 mm 67 W/m2
07:14 17.5 °C 15.7 °C 1005.4 hPa NW 14.3 km/h 14.5 km/h 89% 0.0 mm 76 W/m2
07:19 17.5 °C 15.7 °C 1005.4 hPa NW 9.7 km/h 14.5 km/h 89% 0.0 mm 90 W/m2
07:24 17.6 °C 15.8 °C 1005.4 hPa Calm   6.4 km/h 89% 0.0 mm 90 W/m2
07:29 17.6 °C 15.8 °C 1005.4 hPa West 4.7 km/h 14.5 km/h 89% 0.0 mm 111 W/m2
07:34 17.7 °C 15.9 °C 1005.4 hPa NW 3.2 km/h 3.2 km/h 89% 0.0 mm 58 W/m2
07:39 17.8 °C 15.8 °C 1005.4 hPa NNW 1.4 km/h 4.8 km/h 88% 0.0 mm 95 W/m2
07:44 17.8 °C 15.8 °C 1005.4 hPa NW 1.4 km/h 6.4 km/h 88% 0.0 mm 230 W/m2
07:49 18.1 °C 16.1 °C 1005.4 hPa SW 6.4 km/h 9.7 km/h 88% 0.0 mm 246 W/m2
07:54 18.2 °C 16 °C 1005.4 hPa NNW 4.7 km/h 6.4 km/h 87% 0.0 mm 199 W/m2
07:59 18.3 °C 15.9 °C 1005.4 hPa WNW 7.9 km/h 12.9 km/h 86% 0.0 mm 120 W/m2
08:04 18.4 °C 16.2 °C 1005.4 hPa WSW 6.4 km/h 12.9 km/h 87% 0.0 mm 216 W/m2
08:09 18.3 °C 15.9 °C 1005.4 hPa North 4.7 km/h 4.8 km/h 86% 0.0 mm 109 W/m2
08:14 18.3 °C 15.9 °C 1005.4 hPa Calm   8 km/h 86% 0.0 mm 188 W/m2
08:19 18.4 °C 16.2 °C 1005.8 hPa NW 3.2 km/h 12.9 km/h 87% 0.0 mm 213 W/m2
08:24 18.3 °C 15.9 °C 1005.8 hPa West 9.7 km/h 9.7 km/h 86% 0.0 mm 169 W/m2
08:29 18.4 °C 16 °C 1005.8 hPa WSW 6.4 km/h 11.3 km/h 86% 0.0 mm 195 W/m2
08:34 18.4 °C 16.2 °C 1005.8 hPa NW 3.2 km/h 9.7 km/h 87% 0.0 mm 123 W/m2
08:39 18.4 °C 16 °C 1005.8 hPa WSW 1.4 km/h 8 km/h 86% 0.0 mm 174 W/m2
08:44 18.6 °C 16.4 °C 1005.8 hPa WNW 6.4 km/h 9.7 km/h 87% 0.0 mm 221 W/m2
08:49 18.6 °C 16.2 °C 1005.8 hPa SW 4.7 km/h 12.9 km/h 86% 0.0 mm 204 W/m2
08:54 18.7 °C 16.3 °C 1005.8 hPa Calm   6.4 km/h 86% 0.0 mm 193 W/m2
08:59 18.8 °C 16.4 °C 1006.1 hPa NW 3.2 km/h 12.9 km/h 86% 0.0 mm 211 W/m2
09:04 18.8 °C 16.2 °C 1005.8 hPa SW 4.7 km/h 14.5 km/h 85% 0.0 mm 255 W/m2
09:09 18.8 °C 16.2 °C 1006.1 hPa WSW 11.1 km/h 14.5 km/h 85% 0.0 mm 258 W/m2
09:14 19 °C 16.6 °C 1006.1 hPa West 3.2 km/h 9.7 km/h 86% 0.0 mm 262 W/m2
09:19 19.2 °C 16.4 °C 1006.1 hPa WNW 3.2 km/h 14.5 km/h 84% 0.0 mm 223 W/m2
09:24 19.2 °C 16.4 °C 1006.1 hPa WNW 11.1 km/h 12.9 km/h 84% 0.0 mm 195 W/m2
09:29 19.1 °C 16.3 °C 1006.1 hPa NW 4.7 km/h 4.8 km/h 84% 0.0 mm 246 W/m2
09:34 19.1 °C 16.3 °C 1006.4 hPa WNW 6.4 km/h 20.9 km/h 84% 0.0 mm 364 W/m2
09:39 19.1 °C 16.3 °C 1006.4 hPa NW 6.4 km/h 16.1 km/h 84% 0.0 mm 336 W/m2
09:44 19.2 °C 16.4 °C 1006.4 hPa East 4.7 km/h 20.9 km/h 84% 0.0 mm 332 W/m2
09:49 19.3 °C 16.3 °C 1006.4 hPa Calm   14.5 km/h 83% 0.0 mm 322 W/m2
09:54 19.4 °C 16.6 °C 1006.4 hPa West 1.4 km/h 6.4 km/h 84% 0.0 mm 267 W/m2
09:59 19.4 °C 16.4 °C 1006.4 hPa NNW 4.7 km/h 11.3 km/h 83% 0.0 mm 272 W/m2
10:04 19.4 °C 16.4 °C 1006.4 hPa WNW 11.1 km/h 11.3 km/h 83% 0.0 mm 230 W/m2
10:09 19.4 °C 16.4 °C 1006.4 hPa SSW 1.4 km/h 8 km/h 83% 0.0 mm 320 W/m2
10:14 19.4 °C 16.4 °C 1006.4 hPa West 9.7 km/h 12.9 km/h 83% 0.0 mm 276 W/m2
10:19 19.5 °C 16.3 °C 1006.4 hPa NNE 3.2 km/h 12.9 km/h 82% 0.0 mm 357 W/m2
10:24 19.6 °C 16.4 °C 1006.4 hPa NW 4.7 km/h 19.3 km/h 82% 0.0 mm 454 W/m2
10:29 19.8 °C 16.4 °C 1006.4 hPa West 9.7 km/h 16.1 km/h 81% 0.0 mm 694 W/m2
10:34 19.9 °C 16.5 °C 1006.4 hPa West 9.7 km/h 17.7 km/h 81% 0.0 mm 671 W/m2
10:39 20.2 °C 16.4 °C 1006.4 hPa NNW 7.9 km/h 14.5 km/h 79% 0.0 mm 691 W/m2
10:44 20.6 °C 16.6 °C 1006.4 hPa WNW 4.7 km/h 20.9 km/h 78% 0.0 mm 742 W/m2
10:49 20.6 °C 16.4 °C 1006.4 hPa NW 7.9 km/h 22.5 km/h 77% 0.0 mm 722 W/m2
10:54 20.7 °C 16.5 °C 1006.4 hPa West 3.2 km/h 12.9 km/h 77% 0.0 mm 724 W/m2
10:59 20.8 °C 16.4 °C 1006.4 hPa NNW 13 km/h 22.5 km/h 76% 0.0 mm 740 W/m2
11:04 20.9 °C 16.5 °C 1006.4 hPa NW 11.1 km/h 17.7 km/h 76% 0.0 mm 738 W/m2
11:09 21.2 °C 16.6 °C 1006.4 hPa WSW 4.7 km/h 17.7 km/h 75% 0.0 mm 756 W/m2
11:14 21.3 °C 16 °C 1006.4 hPa WNW 11.1 km/h 20.9 km/h 72% 0.0 mm 754 W/m2
11:19 21.2 °C 15.9 °C 1006.4 hPa West 20.9 km/h 29 km/h 72% 0.0 mm 763 W/m2
11:24 21.1 °C 16.1 °C 1006.8 hPa SW 9.7 km/h 24.1 km/h 73% 0.0 mm 773 W/m2
11:29 21.3 °C 16.3 °C 1006.8 hPa WNW 4.7 km/h 29 km/h 73% 0.0 mm 772 W/m2
11:34 21.4 °C 16.4 °C 1006.4 hPa WNW 6.4 km/h 17.7 km/h 73% 0.0 mm 786 W/m2
11:39 21.6 °C 16.3 °C 1006.4 hPa Calm   12.9 km/h 72% 0.0 mm 791 W/m2
11:44 21.8 °C 16.7 °C 1006.8 hPa NW 3.2 km/h 8 km/h 73% 0.0 mm 803 W/m2
11:49 22.1 °C 16.8 °C 1006.8 hPa NW 4.7 km/h 6.4 km/h 72% 0.0 mm 809 W/m2
11:55 22.3 °C 16.6 °C 1006.8 hPa WNW 7.9 km/h 12.9 km/h 70% 0.0 mm 823 W/m2
12:00 22.3 °C 16.3 °C 1006.8 hPa WSW 6.4 km/h 19.3 km/h 69% 0.0 mm 833 W/m2
12:05 22.3 °C 16.1 °C 1006.8 hPa WNW 11.1 km/h 11.3 km/h 68% 0.0 mm 844 W/m2
12:10 22.3 °C 16.3 °C 1006.8 hPa WNW 14.3 km/h 16.1 km/h 69% 0.0 mm 846 W/m2
12:15 22.3 °C 16.3 °C 1006.8 hPa WSW 7.9 km/h 16.1 km/h 69% 0.0 mm 888 W/m2
12:20 22.2 °C 15.8 °C 1006.8 hPa NW 14.3 km/h 14.5 km/h 67% 0.0 mm 886 W/m2
12:25 22.5 °C 16.5 °C 1006.8 hPa WNW 6.4 km/h 12.9 km/h 69% 0.0 mm 898 W/m2
12:30 22.7 °C 16.7 °C 1007.1 hPa WNW 6.4 km/h 16.1 km/h 69% 0.0 mm 965 W/m2
12:35 22.9 °C 16.4 °C 1007.1 hPa NW 4.7 km/h 16.1 km/h 67% 0.0 mm 940 W/m2
Juneau County Weather
Compliments of Weather Underground - 4 mb